createdAt,value
2023-05-02T00:00:56.236Z,60.79
2023-05-02T00:03:23.191Z,60.91
2023-05-02T00:05:49.909Z,60.71
2023-05-02T00:08:16.697Z,61.11
2023-05-02T00:10:43.418Z,62.13
2023-05-02T00:13:10.136Z,62.20
2023-05-02T00:15:36.824Z,62.32
2023-05-02T00:18:03.619Z,62.83
2023-05-02T00:20:30.307Z,62.65
2023-05-02T00:22:57.359Z,62.63
2023-05-02T00:25:24.329Z,63.08
2023-05-02T00:27:51.227Z,63.10
2023-05-02T00:30:18.555Z,63.36
2023-05-02T00:32:45.897Z,63.19
2023-05-02T00:35:12.595Z,63.11
2023-05-02T00:37:39.425Z,63.16
2023-05-02T00:40:08.041Z,63.01
2023-05-02T00:42:36.246Z,62.90
2023-05-02T00:45:06.890Z,63.07
2023-05-02T00:47:34.510Z,62.54
2023-05-02T00:50:01.981Z,62.58
2023-05-02T00:52:29.092Z,62.79
2023-05-02T00:54:56.482Z,61.82
2023-05-02T00:57:23.321Z,61.41
2023-05-02T00:59:50.989Z,61.05
2023-05-02T01:03:05.672Z,61.01
2023-05-02T01:05:51.051Z,61.02
2023-05-02T01:08:29.181Z,61.28
2023-05-02T01:11:30.954Z,61.44
2023-05-02T01:14:01.964Z,61.80
2023-05-02T01:16:28.990Z,62.37
2023-05-02T01:18:58.462Z,62.12
2023-05-02T01:21:26.662Z,61.92
2023-05-02T01:24:19.563Z,61.56
2023-05-02T01:26:59.204Z,61.45
2023-05-02T01:29:29.434Z,60.79
2023-05-02T01:31:58.060Z,60.84
2023-05-02T01:34:27.724Z,61.76
2023-05-02T01:36:57.410Z,61.80
2023-05-02T01:39:26.255Z,62.30
2023-05-02T01:41:55.995Z,61.67
2023-05-02T01:44:24.220Z,61.58
2023-05-02T01:46:54.912Z,61.10
2023-05-02T01:49:24.205Z,61.46
2023-05-02T01:51:52.808Z,62.52
2023-05-02T01:54:22.984Z,62.05
2023-05-02T01:56:50.159Z,62.47
2023-05-02T01:59:22.732Z,63.46
2023-05-02T02:01:52.308Z,64.06
2023-05-02T02:04:21.862Z,63.94
2023-05-02T02:06:53.565Z,63.75
2023-05-02T02:09:20.741Z,62.96
2023-05-02T02:11:52.561Z,63.09
2023-05-02T02:14:24.977Z,63.78
2023-05-02T02:16:55.184Z,63.31
2023-05-02T02:19:23.029Z,63.54
2023-05-02T02:21:51.318Z,63.53
2023-05-02T02:24:22.623Z,62.95
2023-05-02T02:26:49.305Z,62.79
2023-05-02T02:29:15.924Z,64.03
2023-05-02T02:31:42.704Z,65.14
2023-05-02T02:34:09.659Z,65.59
2023-05-02T02:36:46.342Z,64.66
2023-05-02T02:39:25.399Z,65.14
2023-05-02T02:42:10.060Z,65.20
2023-05-02T02:44:55.026Z,64.52
2023-05-02T02:47:32.360Z,64.91
2023-05-02T02:50:08.299Z,64.38
2023-05-02T02:52:57.737Z,64.17
2023-05-02T02:55:36.701Z,64.11
2023-05-02T02:58:37.045Z,63.62
2023-05-02T03:01:08.266Z,63.35
2023-05-02T03:03:36.463Z,63.14
2023-05-02T03:06:04.767Z,62.52
2023-05-02T03:08:44.321Z,62.58
2023-05-02T03:11:16.365Z,62.95
2023-05-02T03:13:43.034Z,62.75
2023-05-02T03:16:32.254Z,62.07
2023-05-02T03:18:59.655Z,63.04
2023-05-02T03:21:27.132Z,62.67
2023-05-02T03:23:56.426Z,63.17
2023-05-02T03:26:23.368Z,62.69
2023-05-02T03:28:51.471Z,62.50
2023-05-02T03:31:26.704Z,63.01
2023-05-02T03:33:54.422Z,62.77
2023-05-02T03:36:21.383Z,62.32
2023-05-02T03:38:48.306Z,64.02
2023-05-02T03:41:15.022Z,64.87
2023-05-02T03:43:42.739Z,65.23
2023-05-02T03:46:11.556Z,65.10
2023-05-02T03:48:42.121Z,65.10
2023-05-02T03:51:09.862Z,65.83
2023-05-02T03:53:41.783Z,66.87
2023-05-02T03:56:08.662Z,66.53
2023-05-02T03:58:47.147Z,65.46
2023-05-02T04:01:16.168Z,64.70
2023-05-02T04:03:45.679Z,64.46
2023-05-02T04:06:14.181Z,63.96
2023-05-02T04:08:43.385Z,64.41
2023-05-02T04:11:10.014Z,64.43
2023-05-02T04:13:36.967Z,64.87
2023-05-02T04:16:04.724Z,65.67
2023-05-02T04:18:34.367Z,65.11
2023-05-02T04:21:03.165Z,64.93
2023-05-02T04:23:29.847Z,64.36
2023-05-02T04:25:59.948Z,64.20
2023-05-02T04:28:36.335Z,63.93
2023-05-02T04:31:04.152Z,64.12
2023-05-02T04:33:31.999Z,63.85
2023-05-02T04:35:59.376Z,63.47
2023-05-02T04:38:27.248Z,63.96
2023-05-02T04:40:54.663Z,65.07
2023-05-02T04:43:29.001Z,66.27
2023-05-02T04:45:59.885Z,66.46
2023-05-02T04:48:31.007Z,65.35
2023-05-02T04:50:57.734Z,64.06
2023-05-02T04:53:25.003Z,63.80
2023-05-02T04:55:52.177Z,63.82
2023-05-02T04:58:19.111Z,63.57
2023-05-02T05:00:50.195Z,63.07
2023-05-02T05:03:17.357Z,62.78
2023-05-02T05:05:44.130Z,63.92
2023-05-02T05:08:14.590Z,63.50
2023-05-02T05:10:41.296Z,63.46
2023-05-02T05:13:08.767Z,62.60
2023-05-02T05:15:35.686Z,61.71
2023-05-02T05:18:03.104Z,60.78
2023-05-02T05:20:29.830Z,59.87
2023-05-02T05:22:59.260Z,58.77
2023-05-02T05:25:27.694Z,57.89
2023-05-02T05:27:56.241Z,57.00
2023-05-02T05:30:23.996Z,56.42
2023-05-02T05:32:51.053Z,55.76
2023-05-02T05:35:17.864Z,54.84
2023-05-02T05:37:44.733Z,54.46
2023-05-02T05:40:13.912Z,54.08
2023-05-02T05:42:43.840Z,53.45
2023-05-02T05:45:17.241Z,53.42
2023-05-02T05:47:44.057Z,52.95
2023-05-02T05:50:11.240Z,53.02
2023-05-02T05:52:38.634Z,52.03
2023-05-02T05:55:06.751Z,51.03
2023-05-02T05:57:33.771Z,49.93
2023-05-02T06:00:00.844Z,50.01
2023-05-02T06:02:28.052Z,49.66
2023-05-02T06:04:55.912Z,49.46
2023-05-02T06:07:24.682Z,49.77
2023-05-02T06:09:51.634Z,49.60
2023-05-02T06:12:18.286Z,47.81
2023-05-02T06:14:45.976Z,48.07
2023-05-02T06:17:13.857Z,47.43
2023-05-02T06:19:40.591Z,47.87
2023-05-02T06:22:07.268Z,47.42
2023-05-02T06:24:34.057Z,46.38
2023-05-02T06:27:01.085Z,45.05
2023-05-02T06:29:27.797Z,45.13
2023-05-02T06:31:57.601Z,44.73
2023-05-02T06:34:24.285Z,44.29
2023-05-02T06:36:55.621Z,43.26
2023-05-02T06:39:22.405Z,44.50
2023-05-02T06:41:49.035Z,44.78
2023-05-02T06:44:17.762Z,46.99
2023-05-02T06:46:44.554Z,47.38
2023-05-02T06:49:11.228Z,48.22
2023-05-02T06:51:37.849Z,49.32
2023-05-02T06:54:04.570Z,49.60
2023-05-02T06:56:31.293Z,50.22
2023-05-02T06:58:58.274Z,50.24
2023-05-02T07:01:25.027Z,50.79
2023-05-02T07:03:52.350Z,51.43
2023-05-02T07:06:19.051Z,52.15
2023-05-02T07:08:46.032Z,52.27
2023-05-02T07:11:12.647Z,52.68
2023-05-02T07:13:39.312Z,53.31
2023-05-02T07:16:06.721Z,53.02
2023-05-02T07:18:33.472Z,52.34
2023-05-02T07:21:01.330Z,50.81
2023-05-02T07:23:28.337Z,48.69
2023-05-02T07:25:55.111Z,46.61
2023-05-02T07:28:21.904Z,45.19
2023-05-02T07:30:48.523Z,43.24
2023-05-02T07:33:15.756Z,41.79
2023-05-02T07:35:42.990Z,40.14
2023-05-02T07:38:09.585Z,39.55
2023-05-02T07:40:36.261Z,40.73
2023-05-02T07:43:03.027Z,39.41
2023-05-02T07:45:29.832Z,38.73
2023-05-02T07:47:56.646Z,38.04
2023-05-02T07:50:23.858Z,38.20
2023-05-02T07:52:50.756Z,37.67
2023-05-02T07:55:17.382Z,38.68
2023-05-02T07:57:44.382Z,39.00
2023-05-02T08:00:11.700Z,39.82
2023-05-02T08:02:42.676Z,41.74
2023-05-02T08:05:09.928Z,41.54
2023-05-02T08:07:37.212Z,42.27
2023-05-02T08:10:05.791Z,42.25
2023-05-02T08:12:32.781Z,41.11
2023-05-02T08:14:59.509Z,38.88
2023-05-02T08:17:28.983Z,38.71
2023-05-02T08:19:55.747Z,39.23
2023-05-02T08:22:22.349Z,38.78
2023-05-02T08:24:49.007Z,38.44
2023-05-02T08:27:15.785Z,38.86
2023-05-02T08:29:42.424Z,38.43
2023-05-02T08:32:09.295Z,38.43
2023-05-02T08:34:36.687Z,38.80
2023-05-02T08:37:08.193Z,39.27
2023-05-02T08:39:34.905Z,39.70
2023-05-02T08:42:02.358Z,40.70
2023-05-02T08:44:29.012Z,40.59
2023-05-02T08:46:57.087Z,41.30
2023-05-02T08:49:25.354Z,42.94
2023-05-02T08:51:54.895Z,42.64
2023-05-02T08:54:25.639Z,43.19
2023-05-02T08:56:54.058Z,43.28
2023-05-02T08:59:20.955Z,43.14
2023-05-02T09:01:52.610Z,44.17
2023-05-02T09:04:24.266Z,44.17
2023-05-02T09:06:51.018Z,44.03
2023-05-02T09:09:19.074Z,44.83
2023-05-02T09:11:47.771Z,44.40
2023-05-02T09:14:16.019Z,44.46
2023-05-02T09:16:43.110Z,43.76
2023-05-02T09:19:10.616Z,43.38
2023-05-02T09:21:42.246Z,43.28
2023-05-02T09:24:20.208Z,43.00
2023-05-02T09:27:02.604Z,42.58
2023-05-02T09:29:36.066Z,42.00
2023-05-02T09:32:04.301Z,41.89
2023-05-02T09:34:31.576Z,41.13
2023-05-02T09:36:58.361Z,40.29
2023-05-02T09:39:29.025Z,39.60
2023-05-02T09:41:56.690Z,39.21
2023-05-02T09:44:25.904Z,40.26
2023-05-02T09:46:54.626Z,40.41
2023-05-02T09:49:40.035Z,38.94
2023-05-02T09:52:13.809Z,38.75
2023-05-02T09:54:40.866Z,37.96
2023-05-02T09:57:07.984Z,36.96
2023-05-02T09:59:34.870Z,37.01
2023-05-02T10:02:03.280Z,36.74
2023-05-02T10:04:32.069Z,38.25
2023-05-02T10:06:59.943Z,38.42
2023-05-02T10:09:28.210Z,39.30
2023-05-02T10:11:56.395Z,39.13
2023-05-02T10:14:27.768Z,38.52
2023-05-02T10:16:56.134Z,38.26
2023-05-02T10:19:33.515Z,38.23
2023-05-02T10:22:00.716Z,38.63
2023-05-02T10:24:28.869Z,37.00
2023-05-02T10:26:55.690Z,35.42
2023-05-02T10:29:22.584Z,34.68
2023-05-02T10:31:50.615Z,31.87
2023-05-02T10:34:18.832Z,28.43
2023-05-02T10:36:45.950Z,24.92
2023-05-02T10:39:12.783Z,23.54
2023-05-02T10:41:40.926Z,23.02
2023-05-02T10:44:08.718Z,24.57
2023-05-02T10:46:41.938Z,27.02
2023-05-02T10:49:12.405Z,28.72
2023-05-02T10:51:41.073Z,28.31
2023-05-02T10:54:16.751Z,28.89
2023-05-02T10:57:07.892Z,27.23
2023-05-02T10:59:34.557Z,26.91
2023-05-02T11:02:06.787Z,25.88
2023-05-02T11:05:02.784Z,26.06
2023-05-02T11:07:38.789Z,27.71
2023-05-02T11:10:17.540Z,26.63
2023-05-02T11:12:52.137Z,25.91
2023-05-02T11:15:41.771Z,22.86
2023-05-02T11:18:14.593Z,20.84
2023-05-02T11:20:45.496Z,19.90
2023-05-02T11:23:35.479Z,20.03
2023-05-02T11:26:22.133Z,19.39
2023-05-02T11:28:48.791Z,19.09
2023-05-02T11:31:27.850Z,18.80
2023-05-02T11:34:02.380Z,16.82
2023-05-02T11:36:33.640Z,16.66
2023-05-02T11:39:02.597Z,16.36
2023-05-02T11:41:39.875Z,16.26
2023-05-02T11:44:06.600Z,16.07
2023-05-02T11:46:33.704Z,16.04
2023-05-02T11:49:01.137Z,14.94
2023-05-02T11:51:27.783Z,15.34
2023-05-02T11:53:54.511Z,15.87
2023-05-02T11:56:24.800Z,17.87
2023-05-02T11:59:03.036Z,17.21
2023-05-02T12:01:33.262Z,17.41
2023-05-02T12:04:08.002Z,18.07
2023-05-02T12:06:35.392Z,17.96
2023-05-02T12:09:11.113Z,18.38
2023-05-02T12:11:38.648Z,19.20
2023-05-02T12:14:06.700Z,19.07
2023-05-02T12:16:33.871Z,19.91
2023-05-02T12:19:01.267Z,21.65
2023-05-02T12:21:29.902Z,23.43
2023-05-02T12:23:57.441Z,24.30
2023-05-02T12:26:29.152Z,23.45
2023-05-02T12:28:56.658Z,24.26
2023-05-02T12:31:23.858Z,24.75
2023-05-02T12:33:52.439Z,26.05
2023-05-02T12:36:19.732Z,24.95
2023-05-02T12:38:59.115Z,26.28
2023-05-02T12:41:33.015Z,25.83
2023-05-02T12:44:01.003Z,26.35
2023-05-02T12:46:28.468Z,26.65
2023-05-02T12:49:02.876Z,26.31
2023-05-02T12:51:31.447Z,26.91
2023-05-02T12:53:58.315Z,27.84
2023-05-02T12:56:27.600Z,28.50
2023-05-02T12:58:54.245Z,29.96
2023-05-02T13:01:20.911Z,29.65
2023-05-02T13:03:50.882Z,29.26
2023-05-02T13:06:18.660Z,28.73
2023-05-02T13:08:45.407Z,30.30
2023-05-02T13:11:13.390Z,29.28
2023-05-02T13:13:39.987Z,27.53
2023-05-02T13:16:07.902Z,29.55
2023-05-02T13:18:34.787Z,29.16
2023-05-02T13:21:01.597Z,29.01
2023-05-02T13:23:28.295Z,28.20
2023-05-02T13:25:55.590Z,28.67
2023-05-02T13:28:22.269Z,27.60
2023-05-02T13:30:48.987Z,28.75
2023-05-02T13:33:15.940Z,27.94
2023-05-02T13:35:42.808Z,28.29
2023-05-02T13:38:09.652Z,28.37
2023-05-02T13:40:36.497Z,31.05
2023-05-02T13:43:03.129Z,32.63
2023-05-02T13:45:29.805Z,32.65
2023-05-02T13:47:56.593Z,33.67
2023-05-02T13:50:23.341Z,33.25
2023-05-02T13:52:50.004Z,33.19
2023-05-02T13:55:17.005Z,32.64
2023-05-02T13:57:43.712Z,32.79
2023-05-02T14:00:10.985Z,32.15
2023-05-02T14:02:39.085Z,33.38
2023-05-02T14:05:06.517Z,32.42
2023-05-02T14:07:33.298Z,31.97
2023-05-02T14:10:00.415Z,31.94
2023-05-02T14:12:27.446Z,30.77
2023-05-02T14:14:54.120Z,31.57
2023-05-02T14:17:21.566Z,31.38
2023-05-02T14:19:48.226Z,30.45
2023-05-02T14:22:14.901Z,31.24
2023-05-02T14:24:41.541Z,29.76
2023-05-02T14:27:13.001Z,29.50
2023-05-02T14:29:40.010Z,28.95
2023-05-02T14:32:06.785Z,30.05
2023-05-02T14:34:33.508Z,28.81
2023-05-02T14:37:00.261Z,29.94
2023-05-02T14:39:27.604Z,28.80
2023-05-02T14:41:54.289Z,29.70
2023-05-02T14:44:20.946Z,29.33
2023-05-02T14:46:47.705Z,30.01
2023-05-02T14:49:14.530Z,29.73
2023-05-02T14:51:42.822Z,29.01
2023-05-02T14:54:09.578Z,29.43
2023-05-02T14:56:36.572Z,29.57
2023-05-02T14:59:03.271Z,29.51
2023-05-02T15:01:30.393Z,30.14
2023-05-02T15:04:06.696Z,29.18
2023-05-02T15:06:35.588Z,28.73
2023-05-02T15:09:02.916Z,29.24
2023-05-02T15:11:29.658Z,29.85
2023-05-02T15:13:58.842Z,30.62
2023-05-02T15:16:27.117Z,30.76
2023-05-02T15:18:54.173Z,30.84
2023-05-02T15:21:21.160Z,30.56
2023-05-02T15:23:47.848Z,30.14
2023-05-02T15:26:14.607Z,29.75
2023-05-02T15:28:41.468Z,30.05
2023-05-02T15:31:08.171Z,29.61
2023-05-02T15:33:34.901Z,29.48
2023-05-02T15:36:01.692Z,28.35
2023-05-02T15:38:28.345Z,29.11
2023-05-02T15:40:55.908Z,29.29
2023-05-02T15:43:23.238Z,28.37
2023-05-02T15:45:54.450Z,28.83
2023-05-02T15:48:22.244Z,29.04
2023-05-02T15:50:49.040Z,28.88
2023-05-02T15:53:16.700Z,29.14
2023-05-02T15:55:45.806Z,28.38
2023-05-02T15:58:13.564Z,28.56
2023-05-02T16:00:40.347Z,29.27
2023-05-02T16:03:07.161Z,28.76
2023-05-02T16:05:34.563Z,28.99
2023-05-02T16:08:01.547Z,28.01
2023-05-02T16:10:28.348Z,28.58
2023-05-02T16:12:55.033Z,29.22
2023-05-02T16:15:21.983Z,29.73
2023-05-02T16:17:49.775Z,29.04
2023-05-02T16:20:17.944Z,29.71
2023-05-02T16:22:46.300Z,29.26
2023-05-02T16:25:14.017Z,30.12
2023-05-02T16:27:40.914Z,30.74
2023-05-02T16:30:08.484Z,31.24
2023-05-02T16:32:35.147Z,31.41
2023-05-02T16:35:01.773Z,31.81
2023-05-02T16:37:28.567Z,32.42
2023-05-02T16:39:56.116Z,32.97
2023-05-02T16:42:22.816Z,32.57
2023-05-02T16:44:49.439Z,33.25
2023-05-02T16:47:16.094Z,33.75
2023-05-02T16:49:42.729Z,33.63
2023-05-02T16:52:09.433Z,33.85
2023-05-02T16:54:36.081Z,34.16
2023-05-02T16:57:03.828Z,34.19
2023-05-02T16:59:30.517Z,34.54
2023-05-02T17:01:57.517Z,34.18
2023-05-02T17:04:24.190Z,35.43
2023-05-02T17:06:54.523Z,35.53
2023-05-02T17:09:21.216Z,35.69
2023-05-02T17:11:48.001Z,35.51
2023-05-02T17:14:15.393Z,36.52
2023-05-02T17:16:42.902Z,36.71
2023-05-02T17:19:09.570Z,36.39
2023-05-02T17:21:36.743Z,36.51
2023-05-02T17:24:03.521Z,36.96
2023-05-02T17:26:30.210Z,36.49
2023-05-02T17:28:56.862Z,37.13
2023-05-02T17:31:24.028Z,37.04
2023-05-02T17:33:51.012Z,36.95
2023-05-02T17:36:17.848Z,36.59
2023-05-02T17:38:45.060Z,36.66
2023-05-02T17:41:12.157Z,36.81
2023-05-02T17:43:39.142Z,36.88
2023-05-02T17:46:09.978Z,36.72
2023-05-02T17:48:37.054Z,36.80
2023-05-02T17:51:04.746Z,36.13
2023-05-02T17:53:31.394Z,36.54
2023-05-02T17:55:58.106Z,35.66
2023-05-02T17:58:24.747Z,36.05
2023-05-02T18:00:53.052Z,35.98
2023-05-02T18:03:19.761Z,36.08
2023-05-02T18:05:47.648Z,36.39
2023-05-02T18:08:14.607Z,36.12
2023-05-02T18:10:44.451Z,36.55
2023-05-02T18:13:14.060Z,36.47
2023-05-02T18:15:41.034Z,36.07
2023-05-02T18:18:07.858Z,36.78
2023-05-02T18:20:41.217Z,36.31
2023-05-02T18:23:08.015Z,36.55
2023-05-02T18:25:35.751Z,36.75
2023-05-02T18:28:02.368Z,36.89
2023-05-02T18:30:29.219Z,37.29
2023-05-02T18:32:55.921Z,37.25
2023-05-02T18:35:22.807Z,37.52
2023-05-02T18:37:49.427Z,37.60
2023-05-02T18:40:16.095Z,37.93
2023-05-02T18:42:42.669Z,37.73
2023-05-02T18:45:09.974Z,37.64
2023-05-02T18:47:36.810Z,38.31
2023-05-02T18:50:04.890Z,38.27
2023-05-02T18:52:31.692Z,38.72
2023-05-02T18:54:58.549Z,38.99
2023-05-02T18:57:25.584Z,39.37
2023-05-02T18:59:52.221Z,40.17
2023-05-02T19:02:18.913Z,40.91
2023-05-02T19:04:45.645Z,42.01
2023-05-02T19:07:12.282Z,42.85
2023-05-02T19:09:39.285Z,43.06
2023-05-02T19:12:06.244Z,43.83
2023-05-02T19:14:33.420Z,44.27
2023-05-02T19:17:00.118Z,44.41
2023-05-02T19:19:26.778Z,44.50
2023-05-02T19:21:53.458Z,44.31
2023-05-02T19:24:21.081Z,44.39
2023-05-02T19:26:47.719Z,44.82
2023-05-02T19:29:14.335Z,44.82
2023-05-02T19:31:42.521Z,45.09
2023-05-02T19:34:09.379Z,45.28
2023-05-02T19:36:36.144Z,45.55
2023-05-02T19:39:04.109Z,45.50
2023-05-02T19:41:30.896Z,45.80
2023-05-02T19:43:58.813Z,45.89
2023-05-02T19:46:25.641Z,45.92
2023-05-02T19:48:52.495Z,46.08
2023-05-02T19:51:25.201Z,46.10
2023-05-02T19:53:54.700Z,45.88
2023-05-02T19:56:21.573Z,45.67
2023-05-02T19:58:48.338Z,45.67
2023-05-02T20:01:15.076Z,45.66
2023-05-02T20:03:41.920Z,45.72
2023-05-02T20:06:08.774Z,45.75
2023-05-02T20:08:35.757Z,46.01
2023-05-02T20:11:02.456Z,45.81
2023-05-02T20:13:29.090Z,46.00
2023-05-02T20:15:55.888Z,45.87
2023-05-02T20:18:22.589Z,46.23
2023-05-02T20:20:49.257Z,45.98
2023-05-02T20:23:16.204Z,45.93
2023-05-02T20:25:43.619Z,46.11
2023-05-02T20:28:10.565Z,46.00
2023-05-02T20:30:39.161Z,45.99
2023-05-02T20:33:14.731Z,46.22
2023-05-02T20:35:43.283Z,46.42
2023-05-02T20:38:10.087Z,46.19
2023-05-02T20:40:40.909Z,46.48
2023-05-02T20:43:08.721Z,46.19
2023-05-02T20:45:35.543Z,46.65
2023-05-02T20:48:02.206Z,46.65
2023-05-02T20:50:28.966Z,45.98
2023-05-02T20:52:56.455Z,46.26
2023-05-02T20:55:24.346Z,46.07
2023-05-02T20:57:52.833Z,45.89
2023-05-02T21:00:22.492Z,45.85
2023-05-02T21:02:49.604Z,45.90
2023-05-02T21:05:16.494Z,46.17
2023-05-02T21:07:44.617Z,46.11
2023-05-02T21:10:11.342Z,45.87
2023-05-02T21:12:38.111Z,45.88
2023-05-02T21:15:05.630Z,46.00
2023-05-02T21:17:32.324Z,46.43
2023-05-02T21:19:59.073Z,46.33
2023-05-02T21:22:26.884Z,46.57
2023-05-02T21:24:53.535Z,46.55
2023-05-02T21:27:20.339Z,46.66
2023-05-02T21:29:46.933Z,46.37
2023-05-02T21:32:13.832Z,46.88
2023-05-02T21:34:40.674Z,47.07
2023-05-02T21:37:07.423Z,47.62
2023-05-02T21:39:34.106Z,47.32
2023-05-02T21:42:01.423Z,47.17
2023-05-02T21:44:28.206Z,47.29
2023-05-02T21:46:54.873Z,47.35
2023-05-02T21:49:21.757Z,47.18
2023-05-02T21:51:48.456Z,47.22
2023-05-02T21:54:15.084Z,47.60
2023-05-02T21:56:41.978Z,47.72
2023-05-02T21:59:08.603Z,47.76
2023-05-02T22:01:35.182Z,47.93
2023-05-02T22:04:01.872Z,48.12
2023-05-02T22:06:29.219Z,48.15
2023-05-02T22:08:55.975Z,48.10
2023-05-02T22:11:24.291Z,48.19
2023-05-02T22:13:51.160Z,48.19
2023-05-02T22:16:17.758Z,48.27
2023-05-02T22:18:44.649Z,48.02
2023-05-02T22:21:12.049Z,48.31
2023-05-02T22:23:38.901Z,48.57
2023-05-02T22:26:05.814Z,48.73
2023-05-02T22:28:32.483Z,48.56
2023-05-02T22:30:59.076Z,48.91
2023-05-02T22:33:25.731Z,48.76
2023-05-02T22:35:53.740Z,48.95
2023-05-02T22:38:20.412Z,49.23
2023-05-02T22:40:47.093Z,49.17
2023-05-02T22:43:13.697Z,48.90
2023-05-02T22:45:40.679Z,49.04
2023-05-02T22:48:07.952Z,49.19
2023-05-02T22:50:34.699Z,49.52
2023-05-02T22:53:03.796Z,49.42
2023-05-02T22:55:30.703Z,49.52
2023-05-02T22:57:57.934Z,49.99
2023-05-02T23:00:24.874Z,49.69
2023-05-02T23:02:51.679Z,49.68
2023-05-02T23:05:18.955Z,49.99
2023-05-02T23:07:45.819Z,50.12
2023-05-02T23:10:12.446Z,50.35
2023-05-02T23:12:39.183Z,50.23
2023-05-02T23:15:07.010Z,50.57
2023-05-02T23:17:37.151Z,50.81
2023-05-02T23:20:05.262Z,50.71
2023-05-02T23:22:35.742Z,50.87
2023-05-02T23:25:02.862Z,50.84
2023-05-02T23:27:29.874Z,51.09
2023-05-02T23:29:56.524Z,50.34
2023-05-02T23:32:23.889Z,50.67
2023-05-02T23:34:50.788Z,50.35
2023-05-02T23:37:17.575Z,50.18
2023-05-02T23:39:44.270Z,50.06
2023-05-02T23:42:10.913Z,50.38
2023-05-02T23:44:37.526Z,50.10
2023-05-02T23:47:04.259Z,49.89
2023-05-02T23:49:30.972Z,50.06
2023-05-02T23:51:57.697Z,49.92
2023-05-02T23:54:24.550Z,50.31
2023-05-02T23:56:52.998Z,50.55
2023-05-02T23:59:19.703Z,50.52
